sensor_id;sensor_type;location;lat;lon;timestamp;temperature;humidity
37322;DHT22;23697;48.684;9.032;2023-06-04T07:23:13;17.80;55.10
37322;DHT22;23697;48.684;9.032;2023-06-04T07:29:07;17.90;54.10
37322;DHT22;23697;48.684;9.032;2023-06-04T07:31:40;18.00;54.50
37322;DHT22;23697;48.684;9.032;2023-06-04T07:49:54;18.80;53.70
37322;DHT22;23697;48.684;9.032;2023-06-04T07:52:28;19.10;54.60
37322;DHT22;23697;48.684;9.032;2023-06-04T07:54:59;19.10;52.00
37322;DHT22;23697;48.684;9.032;2023-06-04T08:00:31;19.10;53.20
37322;DHT22;23697;48.684;9.032;2023-06-04T08:09:33;19.60;51.30
37322;DHT22;23697;48.684;9.032;2023-06-04T08:12:08;19.80;51.80
37322;DHT22;23697;48.684;9.032;2023-06-04T08:14:48;20.10;49.90
37322;DHT22;23697;48.684;9.032;2023-06-04T08:20:32;20.20;49.90
37322;DHT22;23697;48.684;9.032;2023-06-04T08:32:29;21.00;47.70
37322;DHT22;23697;48.684;9.032;2023-06-04T08:35:19;20.90;46.40
37322;DHT22;23697;48.684;9.032;2023-06-04T08:43:41;21.20;46.10
37322;DHT22;23697;48.684;9.032;2023-06-04T08:46:25;21.20;44.40
37322;DHT22;23697;48.684;9.032;2023-06-04T08:49:08;21.20;44.90
37322;DHT22;23697;48.684;9.032;2023-06-04T08:52:40;21.20;44.90
37322;DHT22;23697;48.684;9.032;2023-06-04T08:58:14;21.50;46.20
37322;DHT22;23697;48.684;9.032;2023-06-04T09:00:44;21.70;45.30
37322;DHT22;23697;48.684;9.032;2023-06-04T09:03:13;21.80;44.00
37322;DHT22;23697;48.684;9.032;2023-06-04T09:05:47;22.00;45.30
37322;DHT22;23697;48.684;9.032;2023-06-04T09:08:38;22.10;43.00
37322;DHT22;23697;48.684;9.032;2023-06-04T09:11:13;22.00;43.20
37322;DHT22;23697;48.684;9.032;2023-06-04T09:13:40;22.00;45.30
37322;DHT22;23697;48.684;9.032;2023-06-04T09:16:14;22.10;42.60
37322;DHT22;23697;48.684;9.032;2023-06-04T09:21:15;22.30;43.70
37322;DHT22;23697;48.684;9.032;2023-06-04T09:23:44;22.40;44.10
37322;DHT22;23697;48.684;9.032;2023-06-04T09:26:11;22.60;43.40
37322;DHT22;23697;48.684;9.032;2023-06-04T09:28:40;22.80;43.50
37322;DHT22;23697;48.684;9.032;2023-06-04T09:31:08;23.00;42.60
37322;DHT22;23697;48.684;9.032;2023-06-04T09:33:42;23.30;42.60
37322;DHT22;23697;48.684;9.032;2023-06-04T09:36:10;23.40;41.70
37322;DHT22;23697;48.684;9.032;2023-06-04T09:38:39;23.40;39.40
37322;DHT22;23697;48.684;9.032;2023-06-04T09:41:11;23.30;40.50
37322;DHT22;23697;48.684;9.032;2023-06-04T09:43:38;23.30;41.00
37322;DHT22;23697;48.684;9.032;2023-06-04T09:46:09;23.10;41.30
37322;DHT22;23697;48.684;9.032;2023-06-04T09:48:37;23.10;40.70
37322;DHT22;23697;48.684;9.032;2023-06-04T09:51:08;23.10;40.30
37322;DHT22;23697;48.684;9.032;2023-06-04T09:53:36;23.10;41.00
37322;DHT22;23697;48.684;9.032;2023-06-04T09:56:05;23.20;41.50
37322;DHT22;23697;48.684;9.032;2023-06-04T09:58:34;23.40;40.70
37322;DHT22;23697;48.684;9.032;2023-06-04T10:01:05;23.10;41.40
37322;DHT22;23697;48.684;9.032;2023-06-04T10:03:34;23.30;40.40
37322;DHT22;23697;48.684;9.032;2023-06-04T10:06:03;23.60;42.30
37322;DHT22;23697;48.684;9.032;2023-06-04T10:08:31;23.90;41.70
37322;DHT22;23697;48.684;9.032;2023-06-04T10:10:59;24.00;39.00
37322;DHT22;23697;48.684;9.032;2023-06-04T10:13:34;23.80;40.10
37322;DHT22;23697;48.684;9.032;2023-06-04T10:16:02;23.80;40.10
37322;DHT22;23697;48.684;9.032;2023-06-04T10:18:30;24.00;40.80
37322;DHT22;23697;48.684;9.032;2023-06-04T10:20:57;24.20;40.00
37322;DHT22;23697;48.684;9.032;2023-06-04T10:23:25;24.40;40.20
37322;DHT22;23697;48.684;9.032;2023-06-04T10:25:52;24.50;38.90
37322;DHT22;23697;48.684;9.032;2023-06-04T10:28:20;24.60;39.50
37322;DHT22;23697;48.684;9.032;2023-06-04T10:30:49;24.70;40.10
37322;DHT22;23697;48.684;9.032;2023-06-04T10:33:18;24.80;40.10
37322;DHT22;23697;48.684;9.032;2023-06-04T10:35:50;24.70;38.10
37322;DHT22;23697;48.684;9.032;2023-06-04T10:38:17;24.70;38.50
37322;DHT22;23697;48.684;9.032;2023-06-04T10:40:44;24.60;39.20
37322;DHT22;23697;48.684;9.032;2023-06-04T10:43:13;24.70;40.10
37322;DHT22;23697;48.684;9.032;2023-06-04T10:45:42;24.70;37.30
37322;DHT22;23697;48.684;9.032;2023-06-04T10:48:12;24.80;39.20
37322;DHT22;23697;48.684;9.032;2023-06-04T10:50:49;24.60;37.40
37322;DHT22;23697;48.684;9.032;2023-06-04T10:53:17;24.30;37.80
37322;DHT22;23697;48.684;9.032;2023-06-04T10:55:45;24.30;38.20
37322;DHT22;23697;48.684;9.032;2023-06-04T10:58:12;24.60;39.20
37322;DHT22;23697;48.684;9.032;2023-06-04T11:00:40;24.70;38.10
37322;DHT22;23697;48.684;9.032;2023-06-04T11:03:09;24.60;37.60
37322;DHT22;23697;48.684;9.032;2023-06-04T11:05:38;24.60;39.20
37322;DHT22;23697;48.684;9.032;2023-06-04T11:08:06;24.90;40.70
37322;DHT22;23697;48.684;9.032;2023-06-04T11:10:35;25.20;39.90
37322;DHT22;23697;48.684;9.032;2023-06-04T11:13:03;25.30;38.60
37322;DHT22;23697;48.684;9.032;2023-06-04T11:15:38;25.10;36.70
37322;DHT22;23697;48.684;9.032;2023-06-04T11:18:05;25.00;38.10
37322;DHT22;23697;48.684;9.032;2023-06-04T11:20:32;25.00;39.30
37322;DHT22;23697;48.684;9.032;2023-06-04T11:23:01;25.20;38.10
37322;DHT22;23697;48.684;9.032;2023-06-04T11:25:29;25.30;36.60
37322;DHT22;23697;48.684;9.032;2023-06-04T11:27:59;25.50;37.60
37322;DHT22;23697;48.684;9.032;2023-06-04T11:30:27;25.70;37.40
37322;DHT22;23697;48.684;9.032;2023-06-04T11:33:01;25.80;36.70
37322;DHT22;23697;48.684;9.032;2023-06-04T11:35:28;25.70;37.60
37322;DHT22;23697;48.684;9.032;2023-06-04T11:37:56;25.80;36.40
37322;DHT22;23697;48.684;9.032;2023-06-04T11:40:25;25.70;34.90
37322;DHT22;23697;48.684;9.032;2023-06-04T11:42:53;25.80;35.50
37322;DHT22;23697;48.684;9.032;2023-06-04T11:45:22;25.70;35.10
37322;DHT22;23697;48.684;9.032;2023-06-04T11:47:51;25.60;35.20
37322;DHT22;23697;48.684;9.032;2023-06-04T11:50:18;25.60;35.60
37322;DHT22;23697;48.684;9.032;2023-06-04T11:52:47;25.70;37.20
37322;DHT22;23697;48.684;9.032;2023-06-04T11:55:14;25.80;33.90
37322;DHT22;23697;48.684;9.032;2023-06-04T11:57:44;25.90;38.10
37322;DHT22;23697;48.684;9.032;2023-06-04T12:00:12;26.10;37.40
37322;DHT22;23697;48.684;9.032;2023-06-04T12:02:49;26.10;34.10
37322;DHT22;23697;48.684;9.032;2023-06-04T12:05:18;26.20;36.00
37322;DHT22;23697;48.684;9.032;2023-06-04T12:07:46;26.40;36.10
37322;DHT22;23697;48.684;9.032;2023-06-04T12:10:16;26.50;34.90
37322;DHT22;23697;48.684;9.032;2023-06-04T12:12:45;26.50;35.80
37322;DHT22;23697;48.684;9.032;2023-06-04T12:15:18;26.60;34.00
37322;DHT22;23697;48.684;9.032;2023-06-04T12:17:52;26.40;34.70
37322;DHT22;23697;48.684;9.032;2023-06-04T12:20:32;26.10;34.50
37322;DHT22;23697;48.684;9.032;2023-06-04T12:23:01;25.60;35.70
37322;DHT22;23697;48.684;9.032;2023-06-04T12:25:28;25.30;35.40
37322;DHT22;23697;48.684;9.032;2023-06-04T12:27:58;25.20;36.20
37322;DHT22;23697;48.684;9.032;2023-06-04T12:30:35;25.40;37.70
37322;DHT22;23697;48.684;9.032;2023-06-04T12:33:02;25.70;36.90
37322;DHT22;23697;48.684;9.032;2023-06-04T12:35:29;25.60;37.30
37322;DHT22;23697;48.684;9.032;2023-06-04T12:37:56;26.00;38.00
37322;DHT22;23697;48.684;9.032;2023-06-04T12:40:23;26.20;33.90
37322;DHT22;23697;48.684;9.032;2023-06-04T12:42:50;26.00;35.00
37322;DHT22;23697;48.684;9.032;2023-06-04T12:45:18;25.90;35.60
37322;DHT22;23697;48.684;9.032;2023-06-04T12:47:46;26.00;34.50
37322;DHT22;23697;48.684;9.032;2023-06-04T12:50:13;26.10;34.60
37322;DHT22;23697;48.684;9.032;2023-06-04T12:52:40;26.20;34.00
37322;DHT22;23697;48.684;9.032;2023-06-04T12:55:10;25.90;33.10
37322;DHT22;23697;48.684;9.032;2023-06-04T12:57:44;26.00;35.80
37322;DHT22;23697;48.684;9.032;2023-06-04T13:00:12;26.10;34.90
37322;DHT22;23697;48.684;9.032;2023-06-04T13:02:42;26.10;33.20
37322;DHT22;23697;48.684;9.032;2023-06-04T13:05:08;26.10;33.70
37322;DHT22;23697;48.684;9.032;2023-06-04T13:07:35;26.00;33.80
37322;DHT22;23697;48.684;9.032;2023-06-04T13:10:03;26.10;35.70
37322;DHT22;23697;48.684;9.032;2023-06-04T13:12:31;26.30;32.70
37322;DHT22;23697;48.684;9.032;2023-06-04T13:14:58;26.20;32.00
37322;DHT22;23697;48.684;9.032;2023-06-04T13:17:27;25.90;31.90
37322;DHT22;23697;48.684;9.032;2023-06-04T13:20:00;26.00;34.00
37322;DHT22;23697;48.684;9.032;2023-06-04T13:22:27;26.10;31.60
37322;DHT22;23697;48.684;9.032;2023-06-04T13:24:54;26.20;34.20
37322;DHT22;23697;48.684;9.032;2023-06-04T13:27:21;26.60;34.40
37322;DHT22;23697;48.684;9.032;2023-06-04T13:29:48;26.70;31.90
37322;DHT22;23697;48.684;9.032;2023-06-04T13:32:15;26.60;32.40
37322;DHT22;23697;48.684;9.032;2023-06-04T13:34:42;26.50;30.90
37322;DHT22;23697;48.684;9.032;2023-06-04T13:37:10;26.50;31.70
37322;DHT22;23697;48.684;9.032;2023-06-04T13:39:38;26.50;31.30
37322;DHT22;23697;48.684;9.032;2023-06-04T13:42:05;26.60;31.90
37322;DHT22;23697;48.684;9.032;2023-06-04T13:44:32;26.50;31.60
37322;DHT22;23697;48.684;9.032;2023-06-04T13:46:59;26.50;31.30
37322;DHT22;23697;48.684;9.032;2023-06-04T13:49:27;26.40;32.80
37322;DHT22;23697;48.684;9.032;2023-06-04T13:51:53;26.50;31.70
37322;DHT22;23697;48.684;9.032;2023-06-04T13:54:22;26.60;31.10
37322;DHT22;23697;48.684;9.032;2023-06-04T13:56:49;26.50;31.60
37322;DHT22;23697;48.684;9.032;2023-06-04T13:59:16;26.40;31.00
37322;DHT22;23697;48.684;9.032;2023-06-04T14:01:43;26.20;31.30
37322;DHT22;23697;48.684;9.032;2023-06-04T14:04:09;26.30;32.00
37322;DHT22;23697;48.684;9.032;2023-06-04T14:06:37;26.30;31.80
37322;DHT22;23697;48.684;9.032;2023-06-04T14:09:04;26.50;33.80
37322;DHT22;23697;48.684;9.032;2023-06-04T14:11:33;26.80;34.00
37322;DHT22;23697;48.684;9.032;2023-06-04T14:14:01;26.90;30.60
37322;DHT22;23697;48.684;9.032;2023-06-04T14:16:28;26.80;30.70
37322;DHT22;23697;48.684;9.032;2023-06-04T14:18:55;26.50;31.60
37322;DHT22;23697;48.684;9.032;2023-06-04T14:21:22;26.60;30.70
37322;DHT22;23697;48.684;9.032;2023-06-04T14:23:50;26.50;30.20
37322;DHT22;23697;48.684;9.032;2023-06-04T14:26:17;26.30;32.00
37322;DHT22;23697;48.684;9.032;2023-06-04T14:28:46;26.20;32.10
37322;DHT22;23697;48.684;9.032;2023-06-04T14:31:12;26.40;31.20
37322;DHT22;23697;48.684;9.032;2023-06-04T14:33:39;26.20;32.00
37322;DHT22;23697;48.684;9.032;2023-06-04T14:36:06;26.40;34.00
37322;DHT22;23697;48.684;9.032;2023-06-04T14:38:33;26.50;30.90
37322;DHT22;23697;48.684;9.032;2023-06-04T14:41:00;26.50;30.00
37322;DHT22;23697;48.684;9.032;2023-06-04T14:43:27;26.40;31.30
37322;DHT22;23697;48.684;9.032;2023-06-04T14:45:56;26.50;31.90
37322;DHT22;23697;48.684;9.032;2023-06-04T14:48:23;26.50;31.20
37322;DHT22;23697;48.684;9.032;2023-06-04T14:50:50;26.10;30.30
37322;DHT22;23697;48.684;9.032;2023-06-04T14:53:19;25.70;31.30
37322;DHT22;23697;48.684;9.032;2023-06-04T15:12:39;25.50;31.70
37322;DHT22;23697;48.684;9.032;2023-06-04T15:15:09;25.60;33.60
37322;DHT22;23697;48.684;9.032;2023-06-04T15:17:37;25.60;31.90
37322;DHT22;23697;48.684;9.032;2023-06-04T15:20:04;25.50;31.90
37322;DHT22;23697;48.684;9.032;2023-06-04T15:22:33;25.20;32.40
37322;DHT22;23697;48.684;9.032;2023-06-04T15:25:00;25.00;33.30
37322;DHT22;23697;48.684;9.032;2023-06-04T15:27:26;24.70;33.10
37322;DHT22;23697;48.684;9.032;2023-06-04T15:29:55;24.60;32.20
37322;DHT22;23697;48.684;9.032;2023-06-04T15:32:22;24.30;32.60
37322;DHT22;23697;48.684;9.032;2023-06-04T15:34:49;24.10;33.20
37322;DHT22;23697;48.684;9.032;2023-06-04T15:37:18;24.00;33.10
37322;DHT22;23697;48.684;9.032;2023-06-04T15:39:45;23.80;33.20
37322;DHT22;23697;48.684;9.032;2023-06-04T15:42:12;23.80;34.60
37322;DHT22;23697;48.684;9.032;2023-06-04T15:44:39;24.00;34.60
37322;DHT22;23697;48.684;9.032;2023-06-04T15:47:07;24.10;34.50
37322;DHT22;23697;48.684;9.032;2023-06-04T15:49:34;24.40;33.60
37322;DHT22;23697;48.684;9.032;2023-06-04T15:52:01;24.50;33.60
37322;DHT22;23697;48.684;9.032;2023-06-04T15:54:28;24.50;32.90
37322;DHT22;23697;48.684;9.032;2023-06-04T15:56:55;24.40;33.80
37322;DHT22;23697;48.684;9.032;2023-06-04T15:59:22;24.40;33.20
37322;DHT22;23697;48.684;9.032;2023-06-04T16:01:50;24.40;33.10
37322;DHT22;23697;48.684;9.032;2023-06-04T16:04:18;24.50;32.70
37322;DHT22;23697;48.684;9.032;2023-06-04T16:06:45;24.60;32.70
37322;DHT22;23697;48.684;9.032;2023-06-04T16:09:12;24.60;32.20
37322;DHT22;23697;48.684;9.032;2023-06-04T16:11:42;24.60;32.10
37322;DHT22;23697;48.684;9.032;2023-06-04T16:14:09;24.40;32.70
37322;DHT22;23697;48.684;9.032;2023-06-04T16:16:36;24.30;32.60
37322;DHT22;23697;48.684;9.032;2023-06-04T16:19:03;24.20;32.40
37322;DHT22;23697;48.684;9.032;2023-06-04T16:21:35;24.10;31.70
37322;DHT22;23697;48.684;9.032;2023-06-04T16:24:07;24.00;32.30
37322;DHT22;23697;48.684;9.032;2023-06-04T16:26:52;23.80;33.20
37322;DHT22;23697;48.684;9.032;2023-06-04T16:29:37;23.70;33.30
37322;DHT22;23697;48.684;9.032;2023-06-04T16:32:09;23.70;32.30
37322;DHT22;23697;48.684;9.032;2023-06-04T16:34:44;23.70;32.80
37322;DHT22;23697;48.684;9.032;2023-06-04T16:37:12;23.60;33.40
37322;DHT22;23697;48.684;9.032;2023-06-04T16:39:41;23.60;32.60
37322;DHT22;23697;48.684;9.032;2023-06-04T16:42:13;23.50;32.70
37322;DHT22;23697;48.684;9.032;2023-06-04T16:44:51;23.40;33.80
37322;DHT22;23697;48.684;9.032;2023-06-04T16:47:27;23.30;33.40
37322;DHT22;23697;48.684;9.032;2023-06-04T16:49:57;23.30;33.00
37322;DHT22;23697;48.684;9.032;2023-06-04T16:59:44;23.10;33.10
37322;DHT22;23697;48.684;9.032;2023-06-04T17:02:25;23.10;34.20
37322;DHT22;23697;48.684;9.032;2023-06-04T17:05:10;23.10;34.60
37322;DHT22;23697;48.684;9.032;2023-06-04T17:07:54;23.10;34.10
37322;DHT22;23697;48.684;9.032;2023-06-04T17:11:07;23.10;33.70
37322;DHT22;23697;48.684;9.032;2023-06-04T17:14:51;23.10;34.50
37322;DHT22;23697;48.684;9.032;2023-06-04T17:20:18;22.90;33.90
37322;DHT22;23697;48.684;9.032;2023-06-04T17:22:45;22.90;34.90
37322;DHT22;23697;48.684;9.032;2023-06-04T17:25:12;22.80;34.40
37322;DHT22;23697;48.684;9.032;2023-06-04T17:27:39;22.70;35.10
37322;DHT22;23697;48.684;9.032;2023-06-04T17:30:25;22.70;37.00
37322;DHT22;23697;48.684;9.032;2023-06-04T17:32:52;22.60;36.60
37322;DHT22;23697;48.684;9.032;2023-06-04T17:35:20;22.60;36.40
37322;DHT22;23697;48.684;9.032;2023-06-04T17:37:47;22.40;36.00
37322;DHT22;23697;48.684;9.032;2023-06-04T17:40:16;22.40;35.50
37322;DHT22;23697;48.684;9.032;2023-06-04T17:42:44;22.30;37.60
37322;DHT22;23697;48.684;9.032;2023-06-04T17:45:12;22.20;37.00
37322;DHT22;23697;48.684;9.032;2023-06-04T17:47:39;22.20;35.40
37322;DHT22;23697;48.684;9.032;2023-06-04T17:50:07;22.20;37.50
37322;DHT22;23697;48.684;9.032;2023-06-04T17:52:38;22.10;36.30
37322;DHT22;23697;48.684;9.032;2023-06-04T17:55:06;22.10;36.20
37322;DHT22;23697;48.684;9.032;2023-06-04T17:57:40;22.00;36.60
37322;DHT22;23697;48.684;9.032;2023-06-04T18:00:08;22.00;36.50
37322;DHT22;23697;48.684;9.032;2023-06-04T18:02:35;21.90;36.70
37322;DHT22;23697;48.684;9.032;2023-06-04T18:05:03;21.90;37.60
37322;DHT22;23697;48.684;9.032;2023-06-04T18:07:30;21.80;36.90
37322;DHT22;23697;48.684;9.032;2023-06-04T18:09:58;21.80;37.90
37322;DHT22;23697;48.684;9.032;2023-06-04T18:12:25;21.80;36.50
37322;DHT22;23697;48.684;9.032;2023-06-04T18:14:52;21.70;36.50
37322;DHT22;23697;48.684;9.032;2023-06-04T18:17:19;21.60;36.90
37322;DHT22;23697;48.684;9.032;2023-06-04T18:19:46;21.60;38.60
37322;DHT22;23697;48.684;9.032;2023-06-04T18:22:14;21.60;37.70
37322;DHT22;23697;48.684;9.032;2023-06-04T18:24:41;21.50;38.70
37322;DHT22;23697;48.684;9.032;2023-06-04T18:27:09;21.40;38.20
37322;DHT22;23697;48.684;9.032;2023-06-04T18:29:36;21.40;38.30
37322;DHT22;23697;48.684;9.032;2023-06-04T18:32:03;21.30;40.30
37322;DHT22;23697;48.684;9.032;2023-06-04T18:34:30;21.20;40.00
37322;DHT22;23697;48.684;9.032;2023-06-04T18:36:57;21.10;39.00
37322;DHT22;23697;48.684;9.032;2023-06-04T18:39:25;21.10;38.90
37322;DHT22;23697;48.684;9.032;2023-06-04T18:41:53;21.10;38.50
37322;DHT22;23697;48.684;9.032;2023-06-04T18:44:22;21.10;38.70
37322;DHT22;23697;48.684;9.032;2023-06-04T18:46:49;21.00;41.00
37322;DHT22;23697;48.684;9.032;2023-06-04T18:52:39;20.90;38.50
37322;DHT22;23697;48.684;9.032;2023-06-04T18:55:13;20.80;39.40
37322;DHT22;23697;48.684;9.032;2023-06-04T18:57:45;20.70;39.80
37322;DHT22;23697;48.684;9.032;2023-06-04T19:00:17;20.70;39.90
37322;DHT22;23697;48.684;9.032;2023-06-04T19:02:47;20.60;41.30
37322;DHT22;23697;48.684;9.032;2023-06-04T19:05:20;20.50;40.70
37322;DHT22;23697;48.684;9.032;2023-06-04T19:07:47;20.50;40.80
37322;DHT22;23697;48.684;9.032;2023-06-04T19:10:23;20.40;41.50
37322;DHT22;23697;48.684;9.032;2023-06-04T19:13:04;20.30;40.00
37322;DHT22;23697;48.684;9.032;2023-06-04T19:15:38;20.20;41.90
37322;DHT22;23697;48.684;9.032;2023-06-04T19:18:15;20.10;41.70
37322;DHT22;23697;48.684;9.032;2023-06-04T19:21:03;20.00;42.10
37322;DHT22;23697;48.684;9.032;2023-06-04T19:23:58;19.80;41.30
37322;DHT22;23697;48.684;9.032;2023-06-04T19:26:31;19.70;41.80
37322;DHT22;23697;48.684;9.032;2023-06-04T19:29:38;19.60;41.70
37322;DHT22;23697;48.684;9.032;2023-06-04T19:32:42;19.60;41.50
37322;DHT22;23697;48.684;9.032;2023-06-04T19:39:23;19.40;41.90
37322;DHT22;23697;48.684;9.032;2023-06-04T19:42:16;19.30;42.00
37322;DHT22;23697;48.684;9.032;2023-06-04T19:46:00;19.40;43.00
37322;DHT22;23697;48.684;9.032;2023-06-04T19:52:59;19.10;43.70
37322;DHT22;23697;48.684;9.032;2023-06-04T19:56:16;19.00;43.40
37322;DHT22;23697;48.684;9.032;2023-06-04T20:21:40;18.50;45.00
37322;DHT22;23697;48.684;9.032;2023-06-04T22:14:04;15.50;55.70
37322;DHT22;23697;48.684;9.032;2023-06-04T22:16:54;15.50;56.30
37322;DHT22;23697;48.684;9.032;2023-06-04T22:19:55;15.40;56.40
37322;DHT22;23697;48.684;9.032;2023-06-04T22:22:24;15.30;56.00
